This is the latest recevied weather packets stored in our database for station/object E22ZMG-3. If no packets are shown the sender has not sent any weather packets the latest 10 day(s).
| Time | Temp. | Humidity | Pressure | Rain* | Wind** | Luminosity | Snow |
|---|---|---|---|---|---|---|---|
| 1777852620 | 30.56° C | 59% | 977 hPa | - | - | 0 W/m² | - |
| 1777851993 | 31.67° C | 57% | 977 hPa | - | - | 0 W/m² | - |
| 1777851369 | 30.56° C | 60% | 977 hPa | - | - | 0 W/m² | - |
| 1777850744 | 30.56° C | 60% | 977 hPa | - | - | 0 W/m² | - |
| 1777850119 | 30.56° C | 59% | 977 hPa | - | - | 0 W/m² | - |
| 1777849494 | 30° C | 59% | 977 hPa | - | - | 0 W/m² | - |
| 1777848869 | 30.56° C | 58% | 976 hPa | - | - | 0 W/m² | - |
| 1777848245 | 31.67° C | 55% | 976 hPa | - | - | 0 W/m² | - |
| 1777847620 | 31.11° C | 56% | 976 hPa | - | - | 0 W/m² | - |
| 1777846995 | 31.11° C | 57% | 976 hPa | - | - | 0 W/m² | - |
| 1777846371 | 31.11° C | 56% | 976 hPa | - | - | 0 W/m² | - |
| 1777845743 | 31.67° C | 55% | 976 hPa | - | - | 0 W/m² | - |
| 1777845119 | 31.11° C | 56% | 976 hPa | - | - | 0 W/m² | - |
| 1777844493 | 31.11° C | 57% | 976 hPa | - | - | 0 W/m² | - |
| 1777843868 | 30° C | 60% | 975 hPa | - | - | 0 W/m² | - |
| 1777843243 | 31.11° C | 55% | 975 hPa | - | - | 0 W/m² | - |
| 1777842619 | 30.56° C | 57% | 975 hPa | - | - | 0 W/m² | - |
| 1777841993 | 31.11° C | 55% | 975 hPa | - | - | 0 W/m² | - |
| 1777841368 | 31.11° C | 55% | 975 hPa | - | - | 0 W/m² | - |
| 1777840743 | 31.11° C | 55% | 975 hPa | - | - | 0 W/m² | - |
| 1777840118 | 31.11° C | 56% | 975 hPa | - | - | 0 W/m² | - |
| 1777839493 | 30.56° C | 57% | 975 hPa | - | - | 0 W/m² | - |
| 1777839203 | 30° C | 59% | 975 hPa | - | - | 0 W/m² | - |
| 1777838578 | 31.11° C | 55% | 975 hPa | - | - | 0 W/m² | - |
| 1777837953 | 31.67° C | 53% | 975 hPa | - | - | 0 W/m² | - |
* Rain since midnight (hover to see other rain measurements)
** Current wind speed in m/s (hover to see current wind gust speed)